sensor_id;sensor_type;location;lat;lon;timestamp;P1;durP1;ratioP1;P2;durP2;ratioP2
46777;SDS011;32536;47.128;8.746;2023-04-25T00:02:16;4.03;;;2.30;;
46777;SDS011;32536;47.128;8.746;2023-04-25T00:04:43;4.32;;;2.90;;
46777;SDS011;32536;47.128;8.746;2023-04-25T00:07:29;4.80;;;2.30;;
46777;SDS011;32536;47.128;8.746;2023-04-25T00:09:56;3.42;;;2.08;;
46777;SDS011;32536;47.128;8.746;2023-04-25T00:12:23;4.63;;;2.60;;
46777;SDS011;32536;47.128;8.746;2023-04-25T00:14:50;3.80;;;2.00;;
46777;SDS011;32536;47.128;8.746;2023-04-25T00:17:18;2.67;;;1.55;;
46777;SDS011;32536;47.128;8.746;2023-04-25T00:19:45;3.13;;;2.42;;
46777;SDS011;32536;47.128;8.746;2023-04-25T00:22:12;4.97;;;1.60;;
46777;SDS011;32536;47.128;8.746;2023-04-25T00:24:39;3.92;;;3.15;;
46777;SDS011;32536;47.128;8.746;2023-04-25T00:27:05;3.85;;;2.58;;
46777;SDS011;32536;47.128;8.746;2023-04-25T00:29:32;3.88;;;2.22;;
46777;SDS011;32536;47.128;8.746;2023-04-25T00:32:00;3.28;;;2.58;;
46777;SDS011;32536;47.128;8.746;2023-04-25T00:34:27;3.22;;;2.47;;
46777;SDS011;32536;47.128;8.746;2023-04-25T00:36:53;3.45;;;2.33;;
46777;SDS011;32536;47.128;8.746;2023-04-25T00:39:20;3.60;;;1.80;;
46777;SDS011;32536;47.128;8.746;2023-04-25T00:41:47;3.58;;;2.25;;
46777;SDS011;32536;47.128;8.746;2023-04-25T00:44:14;2.55;;;1.90;;
46777;SDS011;32536;47.128;8.746;2023-04-25T00:46:42;4.72;;;1.88;;
46777;SDS011;32536;47.128;8.746;2023-04-25T00:49:09;3.83;;;1.95;;
46777;SDS011;32536;47.128;8.746;2023-04-25T00:51:40;3.40;;;1.85;;
46777;SDS011;32536;47.128;8.746;2023-04-25T00:54:07;3.30;;;2.00;;
46777;SDS011;32536;47.128;8.746;2023-04-25T00:56:34;3.33;;;2.08;;
46777;SDS011;32536;47.128;8.746;2023-04-25T00:59:01;5.15;;;3.25;;
46777;SDS011;32536;47.128;8.746;2023-04-25T01:01:28;3.75;;;1.83;;
46777;SDS011;32536;47.128;8.746;2023-04-25T01:03:55;4.82;;;2.67;;
46777;SDS011;32536;47.128;8.746;2023-04-25T01:06:24;3.90;;;2.40;;
46777;SDS011;32536;47.128;8.746;2023-04-25T01:08:51;4.07;;;2.25;;
46777;SDS011;32536;47.128;8.746;2023-04-25T01:11:18;2.65;;;1.85;;
46777;SDS011;32536;47.128;8.746;2023-04-25T01:13:45;4.20;;;2.25;;
46777;SDS011;32536;47.128;8.746;2023-04-25T01:16:12;5.80;;;2.53;;
46777;SDS011;32536;47.128;8.746;2023-04-25T01:18:39;3.53;;;2.20;;
46777;SDS011;32536;47.128;8.746;2023-04-25T01:21:07;3.65;;;1.67;;
46777;SDS011;32536;47.128;8.746;2023-04-25T01:23:35;4.05;;;1.88;;
46777;SDS011;32536;47.128;8.746;2023-04-25T01:26:04;6.55;;;2.67;;
46777;SDS011;32536;47.128;8.746;2023-04-25T01:28:33;4.03;;;2.30;;
46777;SDS011;32536;47.128;8.746;2023-04-25T01:31:01;2.30;;;1.60;;
46777;SDS011;32536;47.128;8.746;2023-04-25T01:33:27;2.95;;;1.77;;
46777;SDS011;32536;47.128;8.746;2023-04-25T01:35:55;2.47;;;1.30;;
46777;SDS011;32536;47.128;8.746;2023-04-25T01:38:22;4.15;;;2.05;;
46777;SDS011;32536;47.128;8.746;2023-04-25T01:40:49;2.65;;;1.88;;
46777;SDS011;32536;47.128;8.746;2023-04-25T01:43:18;3.45;;;1.63;;
46777;SDS011;32536;47.128;8.746;2023-04-25T01:45:44;2.13;;;1.65;;
46777;SDS011;32536;47.128;8.746;2023-04-25T01:48:12;2.58;;;1.95;;
46777;SDS011;32536;47.128;8.746;2023-04-25T01:50:40;2.97;;;1.80;;
46777;SDS011;32536;47.128;8.746;2023-04-25T01:53:08;1.63;;;1.02;;
46777;SDS011;32536;47.128;8.746;2023-04-25T01:55:36;3.03;;;1.70;;
46777;SDS011;32536;47.128;8.746;2023-04-25T01:58:03;2.60;;;1.77;;
46777;SDS011;32536;47.128;8.746;2023-04-25T02:00:35;2.92;;;1.52;;
46777;SDS011;32536;47.128;8.746;2023-04-25T02:03:04;3.33;;;1.73;;
46777;SDS011;32536;47.128;8.746;2023-04-25T02:05:38;2.45;;;1.52;;
46777;SDS011;32536;47.128;8.746;2023-04-25T02:08:06;2.92;;;2.05;;
46777;SDS011;32536;47.128;8.746;2023-04-25T02:10:34;2.17;;;1.77;;
46777;SDS011;32536;47.128;8.746;2023-04-25T02:13:01;3.35;;;1.77;;
46777;SDS011;32536;47.128;8.746;2023-04-25T02:15:30;2.85;;;1.88;;
46777;SDS011;32536;47.128;8.746;2023-04-25T02:17:57;5.30;;;2.05;;
46777;SDS011;32536;47.128;8.746;2023-04-25T02:20:26;3.78;;;2.35;;
46777;SDS011;32536;47.128;8.746;2023-04-25T02:22:54;3.00;;;2.03;;
46777;SDS011;32536;47.128;8.746;2023-04-25T02:25:21;3.85;;;1.95;;
46777;SDS011;32536;47.128;8.746;2023-04-25T02:30:38;2.45;;;1.80;;
46777;SDS011;32536;47.128;8.746;2023-04-25T02:33:04;3.13;;;2.28;;
46777;SDS011;32536;47.128;8.746;2023-04-25T02:35:31;2.45;;;1.60;;
46777;SDS011;32536;47.128;8.746;2023-04-25T02:37:58;3.67;;;1.80;;
46777;SDS011;32536;47.128;8.746;2023-04-25T02:40:25;2.70;;;2.08;;
46777;SDS011;32536;47.128;8.746;2023-04-25T02:42:51;4.28;;;1.98;;
46777;SDS011;32536;47.128;8.746;2023-04-25T02:45:18;1.98;;;1.60;;
46777;SDS011;32536;47.128;8.746;2023-04-25T02:47:45;2.15;;;1.67;;
46777;SDS011;32536;47.128;8.746;2023-04-25T02:50:11;2.05;;;1.70;;
46777;SDS011;32536;47.128;8.746;2023-04-25T02:52:38;3.00;;;1.92;;
46777;SDS011;32536;47.128;8.746;2023-04-25T02:55:05;1.70;;;0.95;;
46777;SDS011;32536;47.128;8.746;2023-04-25T02:57:32;2.13;;;1.60;;
46777;SDS011;32536;47.128;8.746;2023-04-25T02:59:59;2.65;;;2.25;;
46777;SDS011;32536;47.128;8.746;2023-04-25T03:02:25;2.30;;;1.38;;
46777;SDS011;32536;47.128;8.746;2023-04-25T03:04:52;3.53;;;1.70;;
46777;SDS011;32536;47.128;8.746;2023-04-25T03:07:19;2.17;;;1.48;;
46777;SDS011;32536;47.128;8.746;2023-04-25T03:09:46;2.95;;;1.65;;
46777;SDS011;32536;47.128;8.746;2023-04-25T03:12:12;2.38;;;1.63;;
46777;SDS011;32536;47.128;8.746;2023-04-25T03:14:39;2.33;;;1.10;;
46777;SDS011;32536;47.128;8.746;2023-04-25T03:17:06;3.28;;;2.05;;
46777;SDS011;32536;47.128;8.746;2023-04-25T03:19:32;1.90;;;1.45;;
46777;SDS011;32536;47.128;8.746;2023-04-25T03:21:59;1.77;;;1.45;;
46777;SDS011;32536;47.128;8.746;2023-04-25T03:24:26;1.73;;;1.25;;
46777;SDS011;32536;47.128;8.746;2023-04-25T03:26:52;2.88;;;1.92;;
46777;SDS011;32536;47.128;8.746;2023-04-25T03:29:19;5.22;;;2.63;;
46777;SDS011;32536;47.128;8.746;2023-04-25T03:31:49;3.55;;;2.30;;
46777;SDS011;32536;47.128;8.746;2023-04-25T03:34:16;1.98;;;1.63;;
46777;SDS011;32536;47.128;8.746;2023-04-25T03:36:43;3.38;;;2.65;;
46777;SDS011;32536;47.128;8.746;2023-04-25T03:39:10;3.08;;;2.10;;
46777;SDS011;32536;47.128;8.746;2023-04-25T03:41:36;3.30;;;1.40;;
46777;SDS011;32536;47.128;8.746;2023-04-25T03:44:03;2.22;;;1.35;;
46777;SDS011;32536;47.128;8.746;2023-04-25T03:46:30;3.90;;;1.65;;
46777;SDS011;32536;47.128;8.746;2023-04-25T03:48:57;3.45;;;2.15;;
46777;SDS011;32536;47.128;8.746;2023-04-25T03:51:25;3.72;;;2.10;;
46777;SDS011;32536;47.128;8.746;2023-04-25T03:53:52;4.50;;;2.28;;
46777;SDS011;32536;47.128;8.746;2023-04-25T03:56:18;3.42;;;1.77;;
46777;SDS011;32536;47.128;8.746;2023-04-25T03:58:45;2.58;;;1.88;;
46777;SDS011;32536;47.128;8.746;2023-04-25T04:01:12;4.38;;;2.40;;
46777;SDS011;32536;47.128;8.746;2023-04-25T04:03:39;4.20;;;2.35;;
46777;SDS011;32536;47.128;8.746;2023-04-25T04:06:06;2.88;;;1.50;;
46777;SDS011;32536;47.128;8.746;2023-04-25T04:08:34;3.47;;;2.25;;
46777;SDS011;32536;47.128;8.746;2023-04-25T04:11:01;2.78;;;1.42;;
46777;SDS011;32536;47.128;8.746;2023-04-25T04:13:28;3.85;;;1.80;;
46777;SDS011;32536;47.128;8.746;2023-04-25T04:15:55;2.53;;;1.60;;
46777;SDS011;32536;47.128;8.746;2023-04-25T04:18:23;2.55;;;2.35;;
46777;SDS011;32536;47.128;8.746;2023-04-25T04:20:50;2.53;;;1.90;;
46777;SDS011;32536;47.128;8.746;2023-04-25T04:23:16;2.55;;;1.60;;
46777;SDS011;32536;47.128;8.746;2023-04-25T04:25:44;3.28;;;1.85;;
46777;SDS011;32536;47.128;8.746;2023-04-25T04:28:19;1.83;;;1.30;;
46777;SDS011;32536;47.128;8.746;2023-04-25T04:30:47;3.65;;;2.35;;
46777;SDS011;32536;47.128;8.746;2023-04-25T04:33:16;2.47;;;1.45;;
46777;SDS011;32536;47.128;8.746;2023-04-25T04:35:45;2.05;;;1.67;;
46777;SDS011;32536;47.128;8.746;2023-04-25T04:38:12;5.70;;;2.63;;
46777;SDS011;32536;47.128;8.746;2023-04-25T04:40:41;4.05;;;1.75;;
46777;SDS011;32536;47.128;8.746;2023-04-25T04:43:08;2.42;;;1.30;;
46777;SDS011;32536;47.128;8.746;2023-04-25T04:45:36;2.65;;;2.00;;
46777;SDS011;32536;47.128;8.746;2023-04-25T04:48:06;6.20;;;2.38;;
46777;SDS011;32536;47.128;8.746;2023-04-25T04:50:32;2.70;;;1.42;;
46777;SDS011;32536;47.128;8.746;2023-04-25T04:52:59;2.45;;;1.63;;
46777;SDS011;32536;47.128;8.746;2023-04-25T04:55:26;4.78;;;2.00;;
46777;SDS011;32536;47.128;8.746;2023-04-25T04:57:52;2.40;;;1.65;;
46777;SDS011;32536;47.128;8.746;2023-04-25T05:00:19;3.38;;;2.20;;
46777;SDS011;32536;47.128;8.746;2023-04-25T05:02:46;3.60;;;1.75;;
46777;SDS011;32536;47.128;8.746;2023-04-25T05:05:13;1.77;;;1.50;;
46777;SDS011;32536;47.128;8.746;2023-04-25T05:07:39;1.50;;;1.08;;
46777;SDS011;32536;47.128;8.746;2023-04-25T05:10:06;2.15;;;1.67;;
46777;SDS011;32536;47.128;8.746;2023-04-25T05:12:34;1.73;;;1.20;;
46777;SDS011;32536;47.128;8.746;2023-04-25T05:15:00;2.95;;;2.22;;
46777;SDS011;32536;47.128;8.746;2023-04-25T05:17:27;2.80;;;2.05;;
46777;SDS011;32536;47.128;8.746;2023-04-25T05:19:54;2.13;;;1.67;;
46777;SDS011;32536;47.128;8.746;2023-04-25T05:22:20;2.72;;;1.67;;
46777;SDS011;32536;47.128;8.746;2023-04-25T05:24:47;2.53;;;1.13;;
46777;SDS011;32536;47.128;8.746;2023-04-25T05:27:16;3.63;;;2.60;;
46777;SDS011;32536;47.128;8.746;2023-04-25T05:29:43;2.72;;;1.27;;
46777;SDS011;32536;47.128;8.746;2023-04-25T05:32:10;2.30;;;1.73;;
46777;SDS011;32536;47.128;8.746;2023-04-25T05:34:37;1.85;;;1.65;;
46777;SDS011;32536;47.128;8.746;2023-04-25T05:37:04;2.70;;;1.77;;
46777;SDS011;32536;47.128;8.746;2023-04-25T05:39:31;3.03;;;1.33;;
46777;SDS011;32536;47.128;8.746;2023-04-25T05:41:57;2.30;;;1.85;;
46777;SDS011;32536;47.128;8.746;2023-04-25T05:44:24;2.58;;;1.55;;
46777;SDS011;32536;47.128;8.746;2023-04-25T05:46:52;2.90;;;1.88;;
46777;SDS011;32536;47.128;8.746;2023-04-25T05:49:18;2.75;;;1.95;;
46777;SDS011;32536;47.128;8.746;2023-04-25T05:51:45;3.67;;;2.33;;
46777;SDS011;32536;47.128;8.746;2023-04-25T05:54:12;2.30;;;2.00;;
46777;SDS011;32536;47.128;8.746;2023-04-25T05:56:38;2.95;;;2.15;;
46777;SDS011;32536;47.128;8.746;2023-04-25T05:59:05;2.05;;;1.45;;
46777;SDS011;32536;47.128;8.746;2023-04-25T06:01:32;1.55;;;1.17;;
46777;SDS011;32536;47.128;8.746;2023-04-25T06:03:58;2.30;;;1.45;;
46777;SDS011;32536;47.128;8.746;2023-04-25T06:06:25;2.08;;;1.05;;
46777;SDS011;32536;47.128;8.746;2023-04-25T06:08:53;3.22;;;1.90;;
46777;SDS011;32536;47.128;8.746;2023-04-25T06:11:20;3.13;;;1.88;;
46777;SDS011;32536;47.128;8.746;2023-04-25T06:13:47;1.88;;;1.45;;
46777;SDS011;32536;47.128;8.746;2023-04-25T06:16:14;2.33;;;1.80;;
46777;SDS011;32536;47.128;8.746;2023-04-25T06:18:41;1.30;;;0.80;;
46777;SDS011;32536;47.128;8.746;2023-04-25T06:21:07;2.00;;;1.48;;
46777;SDS011;32536;47.128;8.746;2023-04-25T06:23:34;2.78;;;2.28;;
46777;SDS011;32536;47.128;8.746;2023-04-25T06:26:01;2.13;;;1.92;;
46777;SDS011;32536;47.128;8.746;2023-04-25T06:28:27;4.00;;;1.75;;
46777;SDS011;32536;47.128;8.746;2023-04-25T06:30:54;3.28;;;2.08;;
46777;SDS011;32536;47.128;8.746;2023-04-25T06:33:21;3.22;;;2.13;;
46777;SDS011;32536;47.128;8.746;2023-04-25T06:35:47;2.72;;;1.10;;
46777;SDS011;32536;47.128;8.746;2023-04-25T06:38:14;2.05;;;1.60;;
46777;SDS011;32536;47.128;8.746;2023-04-25T06:40:41;4.20;;;2.10;;
46777;SDS011;32536;47.128;8.746;2023-04-25T06:43:08;2.42;;;1.50;;
46777;SDS011;32536;47.128;8.746;2023-04-25T06:45:35;2.13;;;1.88;;
46777;SDS011;32536;47.128;8.746;2023-04-25T06:48:02;1.95;;;1.75;;
46777;SDS011;32536;47.128;8.746;2023-04-25T06:50:29;1.85;;;1.58;;
46777;SDS011;32536;47.128;8.746;2023-04-25T06:52:55;3.05;;;1.98;;
46777;SDS011;32536;47.128;8.746;2023-04-25T06:55:22;2.47;;;2.28;;
46777;SDS011;32536;47.128;8.746;2023-04-25T06:57:49;1.70;;;1.35;;
46777;SDS011;32536;47.128;8.746;2023-04-25T07:00:15;1.48;;;1.30;;
46777;SDS011;32536;47.128;8.746;2023-04-25T07:02:43;1.38;;;0.93;;
46777;SDS011;32536;47.128;8.746;2023-04-25T07:05:10;1.70;;;1.20;;
46777;SDS011;32536;47.128;8.746;2023-04-25T07:07:37;1.63;;;1.38;;
46777;SDS011;32536;47.128;8.746;2023-04-25T07:10:03;2.72;;;1.98;;
46777;SDS011;32536;47.128;8.746;2023-04-25T07:12:31;2.13;;;1.35;;
46777;SDS011;32536;47.128;8.746;2023-04-25T07:14:57;2.00;;;1.45;;
46777;SDS011;32536;47.128;8.746;2023-04-25T07:17:24;2.60;;;1.30;;
46777;SDS011;32536;47.128;8.746;2023-04-25T07:19:51;2.90;;;2.13;;
46777;SDS011;32536;47.128;8.746;2023-04-25T07:22:17;3.60;;;2.50;;
46777;SDS011;32536;47.128;8.746;2023-04-25T07:24:44;3.40;;;2.03;;
46777;SDS011;32536;47.128;8.746;2023-04-25T07:27:14;2.80;;;1.70;;
46777;SDS011;32536;47.128;8.746;2023-04-25T07:29:40;2.58;;;1.77;;
46777;SDS011;32536;47.128;8.746;2023-04-25T07:32:07;3.67;;;2.53;;
46777;SDS011;32536;47.128;8.746;2023-04-25T07:34:35;3.83;;;2.35;;
46777;SDS011;32536;47.128;8.746;2023-04-25T07:37:04;3.17;;;2.08;;
46777;SDS011;32536;47.128;8.746;2023-04-25T07:39:31;9.57;;;4.70;;
46777;SDS011;32536;47.128;8.746;2023-04-25T07:41:58;4.13;;;2.28;;
46777;SDS011;32536;47.128;8.746;2023-04-25T07:44:25;3.90;;;2.10;;
46777;SDS011;32536;47.128;8.746;2023-04-25T07:46:52;2.85;;;2.05;;
46777;SDS011;32536;47.128;8.746;2023-04-25T07:49:19;5.95;;;1.58;;
46777;SDS011;32536;47.128;8.746;2023-04-25T07:51:46;4.65;;;2.53;;
46777;SDS011;32536;47.128;8.746;2023-04-25T07:54:13;3.38;;;2.22;;
46777;SDS011;32536;47.128;8.746;2023-04-25T07:56:41;6.25;;;3.55;;
46777;SDS011;32536;47.128;8.746;2023-04-25T07:59:08;5.60;;;3.75;;
46777;SDS011;32536;47.128;8.746;2023-04-25T08:01:34;7.30;;;4.78;;
46777;SDS011;32536;47.128;8.746;2023-04-25T08:04:01;6.25;;;4.28;;
46777;SDS011;32536;47.128;8.746;2023-04-25T08:06:28;5.90;;;3.85;;
46777;SDS011;32536;47.128;8.746;2023-04-25T08:08:55;5.80;;;3.83;;
46777;SDS011;32536;47.128;8.746;2023-04-25T08:11:21;6.53;;;3.88;;
46777;SDS011;32536;47.128;8.746;2023-04-25T08:13:48;8.57;;;4.78;;
46777;SDS011;32536;47.128;8.746;2023-04-25T08:16:15;6.82;;;4.93;;
46777;SDS011;32536;47.128;8.746;2023-04-25T08:18:41;15.77;;;13.48;;
46777;SDS011;32536;47.128;8.746;2023-04-25T08:21:08;9.73;;;6.72;;
46777;SDS011;32536;47.128;8.746;2023-04-25T08:23:37;13.55;;;8.38;;
46777;SDS011;32536;47.128;8.746;2023-04-25T08:26:04;12.13;;;7.43;;
46777;SDS011;32536;47.128;8.746;2023-04-25T08:28:33;8.80;;;6.63;;
46777;SDS011;32536;47.128;8.746;2023-04-25T08:31:00;8.93;;;6.60;;
46777;SDS011;32536;47.128;8.746;2023-04-25T08:33:27;7.32;;;5.00;;
46777;SDS011;32536;47.128;8.746;2023-04-25T08:35:54;4.70;;;3.03;;
46777;SDS011;32536;47.128;8.746;2023-04-25T08:38:21;3.28;;;2.03;;
46777;SDS011;32536;47.128;8.746;2023-04-25T08:40:49;13.82;;;11.45;;
46777;SDS011;32536;47.128;8.746;2023-04-25T08:43:19;8.95;;;7.03;;
46777;SDS011;32536;47.128;8.746;2023-04-25T08:45:46;6.05;;;4.68;;
46777;SDS011;32536;47.128;8.746;2023-04-25T08:48:14;5.47;;;3.88;;
46777;SDS011;32536;47.128;8.746;2023-04-25T08:50:53;14.82;;;10.60;;
46777;SDS011;32536;47.128;8.746;2023-04-25T08:53:25;10.73;;;6.65;;
46777;SDS011;32536;47.128;8.746;2023-04-25T08:58:22;7.43;;;4.63;;
46777;SDS011;32536;47.128;8.746;2023-04-25T09:00:50;9.43;;;6.63;;
46777;SDS011;32536;47.128;8.746;2023-04-25T09:03:18;20.27;;;15.52;;
46777;SDS011;32536;47.128;8.746;2023-04-25T09:05:45;11.02;;;7.97;;
46777;SDS011;32536;47.128;8.746;2023-04-25T09:08:12;12.23;;;9.85;;
46777;SDS011;32536;47.128;8.746;2023-04-25T09:10:39;10.90;;;5.57;;
46777;SDS011;32536;47.128;8.746;2023-04-25T09:13:10;10.55;;;7.53;;
46777;SDS011;32536;47.128;8.746;2023-04-25T09:15:49;8.85;;;6.35;;
46777;SDS011;32536;47.128;8.746;2023-04-25T09:18:25;12.63;;;6.35;;
46777;SDS011;32536;47.128;8.746;2023-04-25T09:20:53;12.60;;;6.55;;
46777;SDS011;32536;47.128;8.746;2023-04-25T09:23:22;9.13;;;6.32;;
46777;SDS011;32536;47.128;8.746;2023-04-25T09:25:52;5.90;;;3.42;;
46777;SDS011;32536;47.128;8.746;2023-04-25T09:28:38;11.38;;;8.38;;
46777;SDS011;32536;47.128;8.746;2023-04-25T09:31:05;7.88;;;4.90;;
46777;SDS011;32536;47.128;8.746;2023-04-25T09:33:32;11.82;;;9.23;;
46777;SDS011;32536;47.128;8.746;2023-04-25T09:36:03;7.15;;;5.82;;
46777;SDS011;32536;47.128;8.746;2023-04-25T09:38:43;11.30;;;9.50;;
46777;SDS011;32536;47.128;8.746;2023-04-25T09:41:12;10.38;;;7.45;;
46777;SDS011;32536;47.128;8.746;2023-04-25T09:43:39;8.55;;;5.05;;
46777;SDS011;32536;47.128;8.746;2023-04-25T09:46:09;9.80;;;5.82;;
46777;SDS011;32536;47.128;8.746;2023-04-25T09:48:37;12.35;;;8.38;;
46777;SDS011;32536;47.128;8.746;2023-04-25T09:53:40;8.07;;;5.53;;
46777;SDS011;32536;47.128;8.746;2023-04-25T09:56:10;7.32;;;4.70;;
46777;SDS011;32536;47.128;8.746;2023-04-25T09:58:39;10.98;;;8.48;;
46777;SDS011;32536;47.128;8.746;2023-04-25T10:01:07;8.05;;;6.32;;
46777;SDS011;32536;47.128;8.746;2023-04-25T10:03:37;9.70;;;7.50;;
46777;SDS011;32536;47.128;8.746;2023-04-25T10:06:09;14.43;;;9.48;;
46777;SDS011;32536;47.128;8.746;2023-04-25T10:08:43;7.45;;;5.72;;
46777;SDS011;32536;47.128;8.746;2023-04-25T10:11:11;8.40;;;5.43;;
46777;SDS011;32536;47.128;8.746;2023-04-25T10:13:40;7.15;;;4.55;;
46777;SDS011;32536;47.128;8.746;2023-04-25T10:16:07;13.55;;;11.18;;
46777;SDS011;32536;47.128;8.746;2023-04-25T10:18:34;7.25;;;4.38;;
46777;SDS011;32536;47.128;8.746;2023-04-25T10:21:01;6.28;;;4.07;;
46777;SDS011;32536;47.128;8.746;2023-04-25T10:23:30;8.93;;;5.57;;
46777;SDS011;32536;47.128;8.746;2023-04-25T10:25:59;9.32;;;6.03;;
46777;SDS011;32536;47.128;8.746;2023-04-25T10:31:29;8.55;;;5.43;;
46777;SDS011;32536;47.128;8.746;2023-04-25T10:33:56;6.32;;;4.45;;
46777;SDS011;32536;47.128;8.746;2023-04-25T10:36:24;7.20;;;6.13;;
46777;SDS011;32536;47.128;8.746;2023-04-25T10:38:53;7.45;;;4.88;;
46777;SDS011;32536;47.128;8.746;2023-04-25T10:41:20;5.63;;;3.85;;
46777;SDS011;32536;47.128;8.746;2023-04-25T10:43:48;4.35;;;2.78;;
46777;SDS011;32536;47.128;8.746;2023-04-25T10:46:27;5.53;;;2.97;;
46777;SDS011;32536;47.128;8.746;2023-04-25T10:48:58;7.82;;;4.70;;
46777;SDS011;32536;47.128;8.746;2023-04-25T10:51:30;8.50;;;5.80;;
46777;SDS011;32536;47.128;8.746;2023-04-25T10:54:02;4.53;;;2.67;;
46777;SDS011;32536;47.128;8.746;2023-04-25T10:56:33;4.95;;;2.80;;
46777;SDS011;32536;47.128;8.746;2023-04-25T11:01:54;5.13;;;3.30;;
46777;SDS011;32536;47.128;8.746;2023-04-25T11:04:28;4.40;;;2.78;;
46777;SDS011;32536;47.128;8.746;2023-04-25T11:07:05;6.88;;;3.85;;
46777;SDS011;32536;47.128;8.746;2023-04-25T11:09:42;5.40;;;3.00;;
46777;SDS011;32536;47.128;8.746;2023-04-25T11:12:11;5.32;;;3.50;;
46777;SDS011;32536;47.128;8.746;2023-04-25T11:14:38;6.88;;;4.60;;
46777;SDS011;32536;47.128;8.746;2023-04-25T11:17:05;5.38;;;3.80;;
46777;SDS011;32536;47.128;8.746;2023-04-25T11:19:33;7.30;;;3.30;;
46777;SDS011;32536;47.128;8.746;2023-04-25T11:22:00;5.32;;;3.15;;
46777;SDS011;32536;47.128;8.746;2023-04-25T11:24:28;4.32;;;2.88;;
46777;SDS011;32536;47.128;8.746;2023-04-25T11:27:00;5.03;;;2.63;;
46777;SDS011;32536;47.128;8.746;2023-04-25T11:29:34;3.85;;;2.40;;
46777;SDS011;32536;47.128;8.746;2023-04-25T11:32:01;4.15;;;1.98;;
46777;SDS011;32536;47.128;8.746;2023-04-25T11:34:29;3.30;;;1.88;;
46777;SDS011;32536;47.128;8.746;2023-04-25T11:36:57;4.22;;;2.65;;
46777;SDS011;32536;47.128;8.746;2023-04-25T11:39:25;5.22;;;3.72;;
46777;SDS011;32536;47.128;8.746;2023-04-25T11:41:53;5.00;;;3.45;;
46777;SDS011;32536;47.128;8.746;2023-04-25T11:44:21;3.85;;;2.40;;
46777;SDS011;32536;47.128;8.746;2023-04-25T11:46:48;6.70;;;3.40;;
46777;SDS011;32536;47.128;8.746;2023-04-25T11:49:15;4.57;;;2.38;;
46777;SDS011;32536;47.128;8.746;2023-04-25T11:51:44;4.45;;;2.35;;
46777;SDS011;32536;47.128;8.746;2023-04-25T11:54:13;5.25;;;2.85;;
46777;SDS011;32536;47.128;8.746;2023-04-25T11:56:41;3.95;;;2.50;;
46777;SDS011;32536;47.128;8.746;2023-04-25T11:59:11;2.83;;;1.55;;
46777;SDS011;32536;47.128;8.746;2023-04-25T12:01:39;5.95;;;3.58;;
46777;SDS011;32536;47.128;8.746;2023-04-25T12:04:14;4.35;;;2.83;;
46777;SDS011;32536;47.128;8.746;2023-04-25T12:06:48;3.53;;;1.85;;
46777;SDS011;32536;47.128;8.746;2023-04-25T12:09:19;3.10;;;2.03;;
46777;SDS011;32536;47.128;8.746;2023-04-25T12:11:58;4.78;;;2.50;;
46777;SDS011;32536;47.128;8.746;2023-04-25T12:14:30;3.42;;;1.77;;
46777;SDS011;32536;47.128;8.746;2023-04-25T12:16:58;4.13;;;2.53;;
46777;SDS011;32536;47.128;8.746;2023-04-25T12:19:34;4.32;;;3.30;;
46777;SDS011;32536;47.128;8.746;2023-04-25T12:22:03;8.45;;;2.10;;
46777;SDS011;32536;47.128;8.746;2023-04-25T12:24:45;5.13;;;3.90;;
46777;SDS011;32536;47.128;8.746;2023-04-25T12:27:14;4.30;;;3.13;;
46777;SDS011;32536;47.128;8.746;2023-04-25T12:29:49;7.45;;;4.50;;
46777;SDS011;32536;47.128;8.746;2023-04-25T12:32:21;6.78;;;3.45;;
46777;SDS011;32536;47.128;8.746;2023-04-25T12:34:48;5.43;;;3.85;;
46777;SDS011;32536;47.128;8.746;2023-04-25T12:37:15;6.18;;;4.57;;
46777;SDS011;32536;47.128;8.746;2023-04-25T12:39:42;5.25;;;3.72;;
46777;SDS011;32536;47.128;8.746;2023-04-25T12:42:09;5.22;;;3.35;;
46777;SDS011;32536;47.128;8.746;2023-04-25T12:44:38;6.47;;;3.85;;
46777;SDS011;32536;47.128;8.746;2023-04-25T12:47:05;3.38;;;2.05;;
46777;SDS011;32536;47.128;8.746;2023-04-25T12:49:32;2.75;;;1.67;;
46777;SDS011;32536;47.128;8.746;2023-04-25T12:51:59;4.03;;;2.17;;
46777;SDS011;32536;47.128;8.746;2023-04-25T12:54:26;3.67;;;2.17;;
46777;SDS011;32536;47.128;8.746;2023-04-25T12:56:52;3.25;;;1.70;;
46777;SDS011;32536;47.128;8.746;2023-04-25T12:59:20;4.00;;;1.50;;
46777;SDS011;32536;47.128;8.746;2023-04-25T13:01:47;2.65;;;1.15;;
46777;SDS011;32536;47.128;8.746;2023-04-25T13:04:13;2.20;;;1.23;;
46777;SDS011;32536;47.128;8.746;2023-04-25T13:06:41;5.28;;;2.65;;
46777;SDS011;32536;47.128;8.746;2023-04-25T13:09:07;3.28;;;1.75;;
46777;SDS011;32536;47.128;8.746;2023-04-25T13:11:34;3.67;;;2.28;;
46777;SDS011;32536;47.128;8.746;2023-04-25T13:14:01;3.65;;;2.17;;
46777;SDS011;32536;47.128;8.746;2023-04-25T13:16:28;3.80;;;2.67;;
46777;SDS011;32536;47.128;8.746;2023-04-25T13:18:55;4.80;;;3.50;;
46777;SDS011;32536;47.128;8.746;2023-04-25T13:21:21;4.43;;;3.42;;
46777;SDS011;32536;47.128;8.746;2023-04-25T13:23:48;4.97;;;3.45;;
46777;SDS011;32536;47.128;8.746;2023-04-25T13:26:15;3.85;;;2.70;;
46777;SDS011;32536;47.128;8.746;2023-04-25T13:28:54;3.40;;;2.00;;
46777;SDS011;32536;47.128;8.746;2023-04-25T13:31:21;3.53;;;2.47;;
46777;SDS011;32536;47.128;8.746;2023-04-25T13:33:48;2.90;;;1.75;;
46777;SDS011;32536;47.128;8.746;2023-04-25T13:36:14;2.53;;;1.80;;
46777;SDS011;32536;47.128;8.746;2023-04-25T13:38:41;4.82;;;2.30;;
46777;SDS011;32536;47.128;8.746;2023-04-25T13:41:09;2.83;;;2.15;;
46777;SDS011;32536;47.128;8.746;2023-04-25T13:43:39;2.78;;;1.83;;
46777;SDS011;32536;47.128;8.746;2023-04-25T13:46:05;2.72;;;2.22;;
46777;SDS011;32536;47.128;8.746;2023-04-25T13:48:32;3.00;;;2.38;;
46777;SDS011;32536;47.128;8.746;2023-04-25T13:50:59;2.53;;;1.15;;
46777;SDS011;32536;47.128;8.746;2023-04-25T13:53:26;2.97;;;1.85;;
46777;SDS011;32536;47.128;8.746;2023-04-25T13:55:52;2.42;;;2.15;;
46777;SDS011;32536;47.128;8.746;2023-04-25T13:58:19;2.55;;;1.70;;
46777;SDS011;32536;47.128;8.746;2023-04-25T14:00:46;2.50;;;1.65;;
46777;SDS011;32536;47.128;8.746;2023-04-25T14:03:13;2.42;;;1.63;;
46777;SDS011;32536;47.128;8.746;2023-04-25T14:05:39;1.17;;;0.70;;
46777;SDS011;32536;47.128;8.746;2023-04-25T14:08:08;2.08;;;1.33;;
46777;SDS011;32536;47.128;8.746;2023-04-25T14:10:35;2.08;;;1.52;;
46777;SDS011;32536;47.128;8.746;2023-04-25T14:13:03;2.17;;;1.70;;
46777;SDS011;32536;47.128;8.746;2023-04-25T14:15:31;2.75;;;1.58;;
46777;SDS011;32536;47.128;8.746;2023-04-25T14:17:58;2.58;;;1.55;;
46777;SDS011;32536;47.128;8.746;2023-04-25T14:20:26;2.40;;;1.80;;
46777;SDS011;32536;47.128;8.746;2023-04-25T14:22:53;4.63;;;2.15;;
46777;SDS011;32536;47.128;8.746;2023-04-25T14:25:22;3.03;;;1.88;;
46777;SDS011;32536;47.128;8.746;2023-04-25T14:27:49;3.97;;;2.00;;
46777;SDS011;32536;47.128;8.746;2023-04-25T14:30:16;3.10;;;1.90;;
46777;SDS011;32536;47.128;8.746;2023-04-25T14:32:48;4.90;;;1.33;;
46777;SDS011;32536;47.128;8.746;2023-04-25T14:35:15;2.85;;;1.65;;
46777;SDS011;32536;47.128;8.746;2023-04-25T14:37:42;2.78;;;1.27;;
46777;SDS011;32536;47.128;8.746;2023-04-25T14:40:09;2.55;;;1.77;;
46777;SDS011;32536;47.128;8.746;2023-04-25T14:42:39;3.85;;;1.70;;
46777;SDS011;32536;47.128;8.746;2023-04-25T14:45:06;2.78;;;1.65;;
46777;SDS011;32536;47.128;8.746;2023-04-25T14:47:34;4.30;;;2.63;;
46777;SDS011;32536;47.128;8.746;2023-04-25T14:50:02;6.65;;;2.50;;
46777;SDS011;32536;47.128;8.746;2023-04-25T14:52:30;3.08;;;1.73;;
46777;SDS011;32536;47.128;8.746;2023-04-25T14:54:57;3.85;;;2.20;;
46777;SDS011;32536;47.128;8.746;2023-04-25T14:57:25;2.15;;;1.30;;
46777;SDS011;32536;47.128;8.746;2023-04-25T14:59:52;4.38;;;2.35;;
46777;SDS011;32536;47.128;8.746;2023-04-25T15:02:19;3.45;;;2.10;;
46777;SDS011;32536;47.128;8.746;2023-04-25T15:04:45;1.80;;;0.95;;